Time;durP1;ratioP1;P1;durP2;ratioP2;P2;SDS_P1;SDS_P2;PMS_P1;PMS_P2;Temp;Humidity;BMP_temperature;BMP_pressure;BME280_temperature;BME280_humidity;BME280_pressure;Samples;Min_cycle;Max_cycle;Signal;HPM_P1;HPM_P2
2024/03/12 00:01:03;;;;;;;;;2.00;2.00;;;;;16.76;56.32;100584.47;146631;674;46012;-81
2024/03/12 00:04:10;;;;;;;;;3.33;3.33;;;;;16.77;56.16;100590.56;146635;569;46008;-79
2024/03/12 00:07:22;;;;;;;;;4.00;2.00;;;;;16.81;55.94;100589.78;146633;580;47915;-79
2024/03/12 00:10:38;;;;;;;;;5.00;3.00;;;;;16.84;56.30;100576.78;146636;570;45008;-81
2024/03/12 00:13:36;;;;;;;;;5.33;3.33;;;;;16.83;55.93;100581.12;146634;607;45016;-80
2024/03/12 00:16:29;;;;;;;;;4.33;2.33;;;;;16.82;55.78;100586.31;146637;632;45008;-78
2024/03/12 00:19:32;;;;;;;;;2.67;2.67;;;;;16.82;56.48;100582.00;146628;595;46010;-72
2024/03/12 00:22:40;;;;;;;;;6.33;4.00;;;;;16.81;56.12;100581.94;146637;649;45021;-73
2024/03/12 00:25:40;;;;;;;;;2.67;2.00;;;;;16.79;56.28;100570.53;146623;597;45915;-72
2024/03/12 00:28:40;;;;;;;;;3.00;2.00;;;;;16.81;55.92;100574.06;146599;627;47008;-72
2024/03/12 00:31:39;;;;;;;;;5.33;4.00;;;;;16.79;56.28;100560.06;146611;589;46016;-73
2024/03/12 00:34:44;;;;;;;;;3.00;3.00;;;;;16.80;56.40;100548.75;146616;665;46020;-73
2024/03/12 00:37:46;;;;;;;;;8.00;4.67;;;;;16.78;56.59;100545.22;146610;631;47011;-73
2024/03/12 00:40:42;;;;;;;;;4.67;2.33;;;;;16.79;56.37;100552.19;146615;586;47008;-73
2024/03/12 00:43:38;;;;;;;;;4.33;3.33;;;;;16.76;55.93;100553.03;146609;570;47010;-75
2024/03/12 00:46:34;;;;;;;;;4.00;3.00;;;;;16.76;55.91;100546.88;146614;571;46029;-73
2024/03/12 00:49:27;;;;;;;;;3.33;3.00;;;;;16.73;56.49;100549.41;146611;697;46010;-73
2024/03/12 00:52:23;;;;;;;;;3.67;1.00;;;;;16.73;55.93;100552.03;146618;675;46008;-76
2024/03/12 00:55:28;;;;;;;;;6.33;4.00;;;;;16.76;55.86;100549.50;146611;572;46016;-74
2024/03/12 00:58:25;;;;;;;;;3.00;2.00;;;;;16.77;56.14;100533.84;146603;610;46020;-75
2024/03/12 01:01:23;;;;;;;;;2.00;2.00;;;;;16.74;56.32;100538.09;146611;584;47010;-74
2024/03/12 01:04:43;;;;;;;;;2.67;1.00;;;;;15.69;56.32;100352.47;146610;565;46008;-73
2024/03/12 01:07:59;;;;;;;;;3.67;3.00;;;;;16.77;56.75;100527.75;146611;612;46016;-73
2024/03/12 01:11:03;;;;;;;;;5.00;3.00;;;;;16.77;56.86;100527.75;146616;584;46008;-73
2024/03/12 01:13:58;;;;;;;;;6.50;3.00;;;;;16.79;56.51;100526.00;146609;701;46045;-74
2024/03/12 01:17:05;;;;;;;;;3.33;3.00;;;;;16.76;56.59;100528.56;146614;584;46020;-73
2024/03/12 01:20:03;;;;;;;;;6.67;3.00;;;;;16.67;57.67;100531.84;146610;563;46016;-74
2024/03/12 01:23:10;;;;;;;;;3.33;2.33;;;;;16.67;57.16;100528.34;146617;578;46008;-74
2024/03/12 01:26:06;;;;;;;;;4.00;2.67;;;;;16.67;57.60;100530.97;146609;623;46912;-73
2024/03/12 01:29:26;;;;;;;;;4.00;2.00;;;;;16.66;57.19;100522.19;146602;564;47008;-72
2024/03/12 01:32:39;;;;;;;;;5.00;2.67;;;;;16.66;57.47;100529.19;146609;675;46016;-75
2024/03/12 01:35:46;;;;;;;;;2.33;1.33;;;;;16.64;57.84;100542.25;146614;574;47008;-73
2024/03/12 01:38:49;;;;;;;;;5.00;3.33;;;;;16.63;58.32;100535.22;146610;629;46913;-75
2024/03/12 01:41:44;;;;;;;;;3.33;2.00;;;;;16.64;58.36;100521.31;146615;616;46020;-77
2024/03/12 01:44:50;;;;;;;;;4.00;3.00;;;;;16.57;59.42;100533.38;146611;593;47016;-77
2024/03/12 01:47:56;;;;;;;;;3.00;2.33;;;;;16.55;60.77;100542.91;146618;600;45020;-76
2024/03/12 01:50:54;;;;;;;;;4.67;2.00;;;;;16.44;61.59;100528.66;146611;572;46017;-76
2024/03/12 01:53:51;;;;;;;;;5.33;4.67;;;;;16.42;60.80;100540.84;146615;603;46008;-76
2024/03/12 01:56:48;;;;;;;;;5.67;3.00;;;;;16.42;60.38;100538.22;146606;570;47012;-74
2024/03/12 01:59:47;;;;;;;;;4.00;3.00;;;;;16.40;61.45;100526.81;146601;606;46021;-74
2024/03/12 02:02:53;;;;;;;;;3.67;3.00;;;;;16.37;60.89;100529.38;146611;590;47010;-73
2024/03/12 02:05:53;;;;;;;;;3.00;3.00;;;;;16.35;61.81;100529.34;146609;601;46021;-72
2024/03/12 02:08:56;;;;;;;;;4.33;4.00;;;;;16.33;61.46;100525.78;146608;608;47016;-74
2024/03/12 02:11:49;;;;;;;;;3.75;3.00;;;;;16.31;61.25;100523.97;146614;571;48008;-76
2024/03/12 02:14:52;;;;;;;;;6.00;3.25;;;;;16.29;61.33;100526.56;146608;604;46017;-75
2024/03/12 02:17:48;;;;;;;;;5.33;2.33;;;;;16.27;60.84;100524.75;146613;579;46020;-74
2024/03/12 02:21:24;;;;;;;;;3.67;2.33;;;;;15.01;60.63;100308.06;146609;640;47011;-73
2024/03/12 02:24:24;;;;;;;;;4.75;3.50;;;;;16.20;61.28;100528.03;146617;576;46020;-73
2024/03/12 02:27:24;;;;;;;;;7.00;5.75;;;;;16.09;61.29;100525.19;146609;587;47013;-74
2024/03/12 02:30:20;;;;;;;;;4.00;4.00;;;;;15.99;61.10;100529.28;146599;692;47008;-74
2024/03/12 02:33:29;;;;;;;;;4.25;2.25;;;;;15.93;60.79;100529.13;146606;664;47912;-74
2024/03/12 02:39:40;;;;;;;;;3.67;3.00;;;;;15.81;60.60;100527.06;146612;593;46016;-75
2024/03/12 02:42:43;;;;;;;;;3.25;2.25;;;;;15.74;60.81;100527.75;146614;616;47008;-74
2024/03/12 02:45:42;;;;;;;;;2.00;2.00;;;;;15.59;61.00;100528.16;146610;573;46016;-74
2024/03/12 02:48:59;;;;;;;;;3.33;2.67;;;;;15.46;60.88;100521.72;146617;569;46008;-73
2024/03/12 02:51:58;;;;;;;;;1.67;1.00;;;;;15.25;61.54;100511.53;146608;565;47011;-72
2024/03/12 02:55:00;;;;;;;;;2.75;2.00;;;;;15.17;62.05;100514.75;146615;718;47008;-72
2024/03/12 02:57:56;;;;;;;;;1.50;1.50;;;;;15.04;61.97;100508.28;146611;566;46016;-72
2024/03/12 03:00:53;;;;;;;;;3.75;1.75;;;;;14.92;62.45;100506.22;146600;631;47020;-74
2024/03/12 03:03:57;;;;;;;;;3.33;3.00;;;;;14.45;62.72;100453.41;146610;573;46910;-74
2024/03/12 03:06:55;;;;;;;;;4.00;2.00;;;;;14.63;63.80;100501.81;146616;599;46008;-79
2024/03/12 03:10:06;;;;;;;;;2.75;2.75;;;;;14.50;63.53;100514.44;146609;595;46910;-73
2024/03/12 03:13:15;;;;;;;;;2.50;2.00;;;;;12.52;63.52;100168.34;146615;571;46020;-72
2024/03/12 03:16:10;;;;;;;;;5.67;4.33;;;;;14.51;63.87;100517.97;146610;616;47010;-73
2024/03/12 03:19:05;;;;;;;;;2.00;2.00;;;;;14.52;63.74;100514.56;146616;572;46020;-75
2024/03/12 03:22:07;;;;;;;;;4.67;3.00;;;;;14.51;63.80;100508.41;146611;634;46016;-75
2024/03/12 03:25:08;;;;;;;;;4.75;2.50;;;;;14.44;64.02;100506.44;146613;657;47008;-74
2024/03/12 03:28:16;;;;;;;;;5.00;2.75;;;;;14.36;64.13;100513.12;146607;677;48923;-75
2024/03/12 03:31:18;;;;;;;;;5.00;2.25;;;;;14.32;64.72;100513.84;146603;563;46020;-73
2024/03/12 03:34:17;;;;;;;;;74.25;62.50;;;;;14.32;64.70;100514.72;146607;566;47013;-74
2024/03/12 03:37:22;;;;;;;;;36.25;29.00;;;;;14.30;64.45;100511.22;146607;653;46021;-74
2024/03/12 03:40:25;;;;;;;;;7.25;4.00;;;;;14.23;64.58;100510.94;146602;622;47010;-72
2024/03/12 03:43:34;;;;;;;;;74.00;62.67;;;;;14.16;64.47;100516.81;146613;636;47008;-72
2024/03/12 03:46:34;;;;;;;;;25.00;22.50;;;;;14.19;64.72;100523.00;146605;611;46914;-72
2024/03/12 03:49:35;;;;;;;;;5.25;4.25;;;;;14.16;65.82;100520.28;146609;704;47021;-71
2024/03/12 03:52:32;;;;;;;;;7.25;4.25;;;;;14.06;65.59;100510.41;146609;663;46016;-71
2024/03/12 03:55:54;;;;;;;;;8.50;5.50;;;;;13.99;65.14;100521.47;146611;684;46020;-72
2024/03/12 03:59:04;;;;;;;;;7.75;7.50;;;;;13.96;65.63;100521.34;146608;610;47010;-72
2024/03/12 04:02:05;;;;;;;;;9.25;6.25;;;;;13.88;66.08;100520.19;146595;643;48008;-72
2024/03/12 04:05:07;;;;;;;;;10.75;9.00;;;;;13.79;65.86;100529.44;146610;608;46027;-72
2024/03/12 04:08:06;;;;;;;;;8.00;6.25;;;;;13.77;66.37;100532.81;146616;673;46020;-71
2024/03/12 04:11:24;;;;;;;;;10.25;8.50;;;;;11.83;65.65;100180.56;146609;617;46016;-77
2024/03/12 04:14:33;;;;;;;;;8.00;7.25;;;;;13.77;66.41;100532.81;146615;590;46020;-77
2024/03/12 04:17:37;;;;;;;;;11.25;9.75;;;;;13.70;66.22;100521.31;146609;593;46016;-79
2024/03/12 04:20:40;;;;;;;;;8.75;6.00;;;;;13.66;66.80;100532.47;146611;577;46912;-77
2024/03/12 04:23:49;;;;;;;;;8.00;5.00;;;;;13.60;65.50;100521.81;146602;584;48913;-77
2024/03/12 04:26:55;;;;;;;;;7.25;5.25;;;;;13.58;66.57;100532.22;146635;659;46008;-78
2024/03/12 04:30:04;;;;;;;;;8.50;5.00;;;;;13.60;66.42;100530.53;146632;584;45010;-79
2024/03/12 04:33:10;;;;;;;;;7.50;6.00;;;;;13.64;66.58;100521.09;146625;566;46020;-78
2024/03/12 04:36:29;;;;;;;;;11.25;10.50;;;;;13.68;66.26;100516.91;146631;585;46008;-78
2024/03/12 04:39:36;;;;;;;;;11.00;10.25;;;;;13.43;65.93;100479.56;146635;602;46008;-74
2024/03/12 04:42:32;;;;;;;;;9.00;7.00;;;;;13.65;67.08;100517.69;146632;681;46914;-77
2024/03/12 04:45:44;;;;;;;;;10.00;7.25;;;;;13.52;67.09;100521.56;146635;591;45020;-77
2024/03/12 04:49:11;;;;;;;;;9.25;8.75;;;;;13.35;67.32;100520.06;146629;581;46008;-78
2024/03/12 04:52:04;;;;;;;;;4.75;4.75;;;;;13.14;68.35;100510.56;146637;664;45020;-78
2024/03/12 04:55:02;;;;;;;;;5.00;5.00;;;;;13.02;68.71;100511.81;146629;563;46016;-73
2024/03/12 04:58:03;;;;;;;;;8.00;6.00;;;;;12.99;68.30;100511.72;146636;599;45021;-72
2024/03/12 05:01:21;;;;;;;;;13.00;11.00;;;;;11.08;67.16;100171.63;146630;571;46016;-71
2024/03/12 05:04:24;;;;;;;;;9.50;6.50;;;;;13.14;67.60;100512.28;146627;717;45020;-72
2024/03/12 05:07:25;;;;;;;;;6.25;5.25;;;;;13.18;67.46;100520.28;146629;600;45913;-75
2024/03/12 05:10:30;;;;;;;;;5.00;5.00;;;;;13.24;67.33;100516.13;146635;575;45008;-74
2024/03/12 05:13:30;;;;;;;;;10.75;8.00;;;;;13.36;67.06;100517.53;146629;579;46915;-73
2024/03/12 05:16:31;;;;;;;;;9.00;6.75;;;;;13.57;68.65;100511.28;146632;563;46008;-71
2024/03/12 05:19:34;;;;;;;;;8.50;6.75;;;;;14.14;65.66;100510.63;146632;607;45010;-75
2024/03/12 05:22:35;;;;;;;;;8.75;6.50;;;;;14.75;64.33;100515.25;146636;573;45008;-78
2024/03/12 05:25:50;;;;;;;;;9.75;9.00;;;;;15.57;65.39;100513.28;146616;563;46010;-77
2024/03/12 05:28:59;;;;;;;;;;;;;;;;;;;;;
2024/03/12 05:32:09;;;;;;;;;;;;;;;;;;;;;
2024/03/12 05:35:18;;;;;;;;;21.50;18.25;;;;;17.63;58.21;100509.47;146610;565;46021;-78
2024/03/12 05:38:33;;;;;;;;;11.25;11.00;;;;;18.30;57.38;100507.19;146611;580;46016;-78
2024/03/12 05:48:38;;;;;;;;;23.25;20.00;;;;;19.53;52.24;100532.56;146612;564;47021;-75
2024/03/12 05:51:39;;;;;;;;;19.75;16.75;;;;;19.66;50.38;100541.50;146608;579;46912;-76
2024/03/12 05:54:45;;;;;;;;;10.00;9.33;;;;;19.72;50.36;100537.22;146613;583;47008;-75
2024/03/12 05:57:51;;;;;;;;;7.00;7.00;;;;;19.37;50.58;100534.12;146613;575;46017;-76
2024/03/12 06:00:59;;;;;;;;;12.33;7.00;;;;;18.97;51.49;100545.84;146614;563;47008;-74
2024/03/12 06:03:58;;;;;;;;;10.00;8.00;;;;;18.87;52.00;100547.47;146605;580;47912;-74
2024/03/12 06:06:54;;;;;;;;;10.25;10.00;;;;;18.86;51.24;100548.34;146606;700;47029;-73
2024/03/12 06:10:00;;;;;;;;;9.50;8.25;;;;;18.66;52.07;100547.97;146609;627;46016;-74
2024/03/12 06:12:53;;;;;;;;;9.50;7.25;;;;;18.60;54.09;100547.91;146614;565;46008;-74
2024/03/12 06:15:49;;;;;;;;;6.33;4.00;;;;;18.73;52.69;100549.03;146609;659;46909;-75
2024/03/12 06:18:43;;;;;;;;;5.67;5.00;;;;;18.88;51.92;100546.63;146618;581;46020;-75
2024/03/12 06:21:42;;;;;;;;;4.00;3.33;;;;;18.91;50.35;100550.19;146611;593;46016;-76
2024/03/12 06:24:47;;;;;;;;;16.50;12.25;;;;;18.93;51.81;100553.69;146615;599;46020;-75
2024/03/12 06:27:52;;;;;;;;;13.75;11.25;;;;;19.12;52.82;100551.31;146606;676;47017;-79
2024/03/12 06:30:58;;;;;;;;;7.67;7.67;;;;;19.38;52.49;100549.94;146614;653;47008;-72
2024/03/12 06:33:55;;;;;;;;;9.00;7.00;;;;;19.66;49.83;100542.41;146609;566;47017;-73
2024/03/12 06:36:57;;;;;;;;;8.00;5.33;;;;;19.86;48.63;100539.09;146611;644;46020;-73
2024/03/12 06:39:55;;;;;;;;;7.00;5.00;;;;;19.98;49.31;100541.87;146611;581;47016;-73
2024/03/12 06:42:53;;;;;;;;;8.00;4.67;;;;;20.01;48.61;100541.91;146617;658;46010;-73
2024/03/12 06:45:55;;;;;;;;;10.00;8.67;;;;;20.05;48.99;100547.19;146609;622;47010;-73
2024/03/12 06:49:09;;;;;;;;;9.67;7.33;;;;;20.09;47.95;100542.84;146615;574;46008;-74
2024/03/12 06:52:06;;;;;;;;;8.00;6.67;;;;;20.03;46.74;100554.22;146606;572;47010;-73
2024/03/12 06:55:04;;;;;;;;;2.00;1.00;;;;;19.91;40.86;100553.19;146612;564;48008;-72
2024/03/12 06:58:03;;;;;;;;;3.00;2.00;;;;;19.70;43.68;100556.47;146611;616;46041;-78
2024/03/12 07:01:02;;;;;;;;;3.00;2.00;;;;;19.57;44.23;100561.56;146620;557;46020;-75
2024/03/12 07:04:01;;;;;;;;;2.00;1.67;;;;;19.63;43.28;100555.50;146611;583;47012;-74
2024/03/12 07:07:05;;;;;;;;;2.00;2.00;;;;;18.78;45.33;100424.75;146609;563;47020;-74
2024/03/12 07:10:02;;;;;;;;;2.33;2.33;;;;;19.56;45.26;100567.69;146612;585;47043;-76
2024/03/12 07:13:00;;;;;;;;;1.67;0.33;;;;;19.63;43.80;100571.28;146614;582;47008;-75
2024/03/12 07:16:15;;;;;;;;;2.00;1.00;;;;;19.68;43.66;100566.97;146610;563;46010;-77
2024/03/12 07:19:17;;;;;;;;;2.00;2.00;;;;;19.72;43.97;100563.53;146619;565;46020;-76
2024/03/12 07:22:24;;;;;;;;;7.33;6.67;;;;;19.78;45.24;100574.12;146608;629;48012;-80
2024/03/12 07:25:20;;;;;;;;;4.67;2.67;;;;;19.84;44.70;100574.19;146617;571;46008;-77
2024/03/12 07:28:31;;;;;;;;;8.67;7.67;;;;;19.88;43.56;100579.47;146609;599;47016;-76
2024/03/12 07:31:37;;;;;;;;;3.00;1.67;;;;;19.87;44.12;100578.56;146615;657;47008;-77
2024/03/12 07:34:38;;;;;;;;;2.00;2.00;;;;;19.89;45.07;100579.47;146613;626;46016;-78
2024/03/12 07:37:45;;;;;;;;;2.00;2.00;;;;;19.86;42.35;100578.56;146610;588;47010;-77
2024/03/12 07:40:41;;;;;;;;;3.67;2.67;;;;;19.76;43.09;100589.00;146610;641;47912;-77
2024/03/12 07:43:37;;;;;;;;;3.33;2.00;;;;;19.71;44.74;100589.78;146616;573;47008;-77
2024/03/12 07:46:36;;;;;;;;;2.67;2.67;;;;;19.66;45.75;100578.31;146608;580;47016;-77
2024/03/12 07:49:39;;;;;;;;;1.33;1.33;;;;;19.66;44.84;100595.03;146616;582;47021;-78
2024/03/12 07:52:45;;;;;;;;;5.00;4.00;;;;;19.60;47.10;100614.19;146611;615;46912;-77
2024/03/12 07:55:52;;;;;;;;;6.33;4.00;;;;;19.50;47.65;100621.94;146610;584;47914;-76
2024/03/12 07:58:57;;;;;;;;;6.67;6.33;;;;;19.33;49.06;100629.59;146611;644;47012;-78
2024/03/12 08:02:11;;;;;;;;;9.50;7.00;;;;;19.11;51.12;100626.66;146612;576;47008;-76
2024/03/12 08:05:26;;;;;;;;;7.33;5.33;;;;;18.97;51.86;100632.56;146614;635;46030;-76
2024/03/12 08:08:41;;;;;;;;;10.00;7.00;;;;;18.85;52.89;100642.03;146611;653;46041;-78
2024/03/12 08:11:48;;;;;;;;;10.00;10.00;;;;;18.74;56.49;100647.97;146609;636;47016;-79
2024/03/12 08:14:48;;;;;;;;;13.00;10.00;;;;;18.47;57.82;100646.56;146614;625;47020;-79
2024/03/12 08:17:46;;;;;;;;;7.67;6.00;;;;;18.22;56.34;100634.75;146612;571;47017;-78
2024/03/12 08:21:01;;;;;;;;;6.67;6.67;;;;;17.04;56.46;100485.53;146618;566;46020;-81
2024/03/12 08:24:05;;;;;;;;;7.00;6.00;;;;;17.81;57.13;100644.44;146612;588;46010;-79
2024/03/12 08:27:27;;;;;;;;;4.33;4.33;;;;;17.71;57.23;100632.84;146620;600;46020;-81
2024/03/12 08:30:33;;;;;;;;;6.67;5.33;;;;;17.79;55.90;100641.81;146611;586;46016;-79
2024/03/12 08:33:33;;;;;;;;;3.33;3.33;;;;;17.01;55.55;100488.13;146614;643;47008;-80
2024/03/12 08:36:35;;;;;;;;;7.00;4.00;;;;;17.85;54.64;100634.06;146608;579;47010;-80
2024/03/12 08:39:52;;;;;;;;;5.67;4.00;;;;;17.85;53.76;100630.53;146610;577;46020;-81
2024/03/12 08:43:02;;;;;;;;;7.33;3.67;;;;;17.83;54.52;100642.75;146606;574;47010;-81
2024/03/12 08:46:05;;;;;;;;;4.67;2.33;;;;;17.84;52.91;100650.63;146617;607;47008;-82
2024/03/12 08:49:07;;;;;;;;;5.33;3.67;;;;;17.82;52.66;100639.25;146610;628;46032;-80
2024/03/12 08:52:22;;;;;;;;;8.00;4.33;;;;;17.82;53.15;100647.13;146617;620;46020;-82
2024/03/12 08:55:20;;;;;;;;;6.00;5.00;;;;;17.83;52.13;100654.13;146608;603;47010;-80
2024/03/12 08:58:21;;;;;;;;;7.00;4.00;;;;;17.83;51.55;100656.75;146612;586;47020;-82
2024/03/12 09:01:18;;;;;;;;;4.25;4.00;;;;;17.82;51.44;100657.59;146609;589;46013;-80
2024/03/12 09:04:12;;;;;;;;;5.00;5.00;;;;;17.81;52.45;100650.56;146616;620;46008;-80
2024/03/12 09:07:17;;;;;;;;;6.00;5.33;;;;;17.82;50.82;100651.44;146610;704;47010;-80
2024/03/12 09:10:27;;;;;;;;;5.50;4.75;;;;;17.74;51.62;100654.78;146610;599;47008;-78
2024/03/12 09:13:23;;;;;;;;;3.00;2.33;;;;;17.61;51.89;100652.75;146614;621;45911;-78
2024/03/12 09:16:26;;;;;;;;;5.50;3.75;;;;;17.47;53.56;100644.56;146620;660;46020;-79
2024/03/12 09:19:24;;;;;;;;;5.00;3.33;;;;;17.37;52.32;100644.34;146610;556;47010;-79
2024/03/12 09:22:28;;;;;;;;;3.00;2.00;;;;;17.30;53.44;100652.06;146617;566;47008;-79
2024/03/12 09:25:23;;;;;;;;;5.00;2.00;;;;;17.31;53.21;100648.59;146609;619;47912;-80
2024/03/12 09:28:31;;;;;;;;;3.00;3.00;;;;;17.38;54.03;100652.22;146615;572;47020;-77
2024/03/12 09:31:39;;;;;;;;;3.00;2.67;;;;;17.45;54.34;100663.75;146615;587;46016;-81
2024/03/12 09:34:49;;;;;;;;;6.00;4.00;;;;;17.54;54.32;100659.59;146619;641;46020;-79
2024/03/12 09:37:48;;;;;;;;;3.67;2.67;;;;;17.64;52.22;100667.66;146611;580;47912;-78
2024/03/12 09:40:49;;;;;;;;;2.00;2.00;;;;;17.71;51.49;100664.31;146611;639;46021;-81
2024/03/12 09:44:13;;;;;;;;;;;;;;;;;;;;;
2024/03/12 09:47:15;;;;;;;;;1.00;1.00;;;;;17.82;50.31;100661.94;146617;712;46048;-80
2024/03/12 09:50:31;;;;;;;;;1.00;0.00;;;;;17.87;50.46;100669.06;146612;633;46911;-81
2024/03/12 09:53:25;;;;;;;;;1.33;0.00;;;;;17.92;48.34;100674.41;146614;579;47008;-76
2024/03/12 09:56:22;;;;;;;;;0.00;0.00;;;;;17.91;48.98;100665.66;146610;627;47016;-77
2024/03/12 09:59:20;;;;;;;;;0.00;0.00;;;;;17.92;49.45;100662.19;146617;586;46008;-82
2024/03/12 10:02:39;;;;;;;;;0.00;0.00;;;;;17.98;50.12;100666.66;146613;602;46017;-82
2024/03/12 10:05:40;;;;;;;;;0.00;0.00;;;;;18.07;49.53;100653.72;146618;673;45934;-80
2024/03/12 10:09:15;;;;;;;;;0.33;0.00;;;;;18.22;50.72;100655.75;146611;581;46914;-83
2024/03/12 10:12:18;;;;;;;;;0.00;0.00;;;;;18.38;49.27;100657.81;146610;577;47008;-83
2024/03/12 10:15:24;;;;;;;;;2.00;0.00;;;;;18.53;48.91;100649.31;146612;595;46017;-82
2024/03/12 10:18:33;;;;;;;;;0.00;0.00;;;;;18.65;48.62;100649.53;146615;656;46020;-82
2024/03/12 10:21:34;;;;;;;;;2.33;1.00;;;;;18.73;46.74;100646.22;146609;578;47016;-83
2024/03/12 10:24:29;;;;;;;;;19.50;16.50;;;;;18.77;46.57;100641.00;146616;581;46020;-83
2024/03/12 10:27:42;;;;;;;;;5.00;4.00;;;;;18.84;47.48;100636.75;146606;614;46911;-82
2024/03/12 10:30:45;;;;;;;;;7.00;6.67;;;;;18.84;46.39;100628.84;146613;608;47008;-83
2024/03/12 10:33:48;;;;;;;;;20.50;17.50;;;;;18.78;45.92;100624.38;146610;577;46010;-84
2024/03/12 10:36:54;;;;;;;;;8.00;6.00;;;;;18.82;46.15;100620.09;146607;591;46020;-82
2024/03/12 10:39:56;;;;;;;;;7.00;6.00;;;;;18.96;47.33;100612.41;146608;657;47010;-82
2024/03/12 10:43:25;;;;;;;;;7.67;6.00;;;;;19.17;48.64;100607.47;146603;664;46020;-85
2024/03/12 10:46:24;;;;;;;;;4.33;4.00;;;;;19.52;45.53;100600.06;146610;577;47011;-83
2024/03/12 10:49:22;;;;;;;;;1.00;0.00;;;;;19.88;44.50;100597.91;146618;593;46008;-83
2024/03/12 10:52:33;;;;;;;;;1.00;1.00;;;;;20.24;44.40;100594.75;146612;574;45911;-84
2024/03/12 10:55:32;;;;;;;;;0.33;0.00;;;;;20.70;43.78;100582.91;146615;588;46020;-83
2024/03/12 10:58:33;;;;;;;;;0.00;0.00;;;;;21.15;42.78;100576.19;146609;663;47010;-83
2024/03/12 11:01:28;;;;;;;;;0.00;0.00;;;;;21.38;41.19;100571.06;146617;633;46010;-84
2024/03/12 11:04:22;;;;;;;;;0.00;0.00;;;;;21.48;40.32;100566.69;146609;673;46911;-84
2024/03/12 11:07:21;;;;;;;;;2.33;1.00;;;;;21.50;41.26;100575.50;146617;589;46021;-80
2024/03/12 11:10:33;;;;;;;;;0.00;0.00;;;;;21.48;42.29;100566.69;146601;570;48912;-82
2024/03/12 11:13:30;;;;;;;;;1.00;1.00;;;;;21.46;40.18;100573.72;146602;573;47020;-82
2024/03/12 11:16:57;;;;;;;;;2.00;2.00;;;;;21.41;41.57;100568.44;146613;577;46017;-82
2024/03/12 11:20:07;;;;;;;;;0.00;0.00;;;;;21.33;43.51;100575.38;146611;654;47010;-81
2024/03/12 11:23:28;;;;;;;;;0.00;0.00;;;;;21.30;42.37;100569.22;146612;598;46017;-78
2024/03/12 11:26:33;;;;;;;;;3.00;3.00;;;;;21.25;41.20;100561.31;146614;579;46010;-82
2024/03/12 11:30:14;;;;;;;;;0.00;0.00;;;;;19.59;39.49;100264.37;146609;720;47010;-85
2024/03/12 11:33:56;;;;;;;;;0.00;0.00;;;;;19.51;43.79;100251.19;146613;577;46020;-84
2024/03/12 11:36:56;;;;;;;;;0.33;0.00;;;;;21.20;37.77;100539.28;146611;596;46028;-82
2024/03/12 11:40:26;;;;;;;;;0.00;0.00;;;;;20.96;40.57;100534.75;146617;591;46008;-81
2024/03/12 11:43:51;;;;;;;;;1.00;0.00;;;;;19.11;43.29;100223.69;146610;641;46912;-83
2024/03/12 11:47:00;;;;;;;;;12.33;10.67;;;;;20.90;40.27;100506.62;146600;574;47008;-82
2024/03/12 11:50:01;;;;;;;;;9.75;9.75;;;;;21.09;40.24;100501.44;146605;646;46016;-80
2024/03/12 11:53:46;;;;;;;;;8.50;8.50;;;;;21.25;41.54;100489.22;146616;644;47008;-82
2024/03/12 11:57:00;;;;;;;;;0.67;0.00;;;;;21.31;37.98;100482.22;146612;628;47010;-80
2024/03/12 11:59:57;;;;;;;;;0.00;0.00;;;;;20.94;39.56;100429.34;146614;627;46008;-82
2024/03/12 12:03:07;;;;;;;;;3.67;2.00;;;;;21.17;38.00;100484.78;146610;614;47016;-79
2024/03/12 12:06:12;;;;;;;;;0.00;0.00;;;;;21.07;39.01;100480.34;146617;569;46008;-85
2024/03/12 12:09:18;;;;;;;;;2.00;2.00;;;;;21.02;41.07;100476.78;146606;638;46912;-80
2024/03/12 12:12:15;;;;;;;;;0.00;0.00;;;;;20.97;40.81;100465.38;146614;575;47020;-86
2024/03/12 12:15:16;;;;;;;;;1.00;1.00;;;;;21.09;40.31;100454.88;146611;581;47010;-83
2024/03/12 12:18:26;;;;;;;;;0.00;0.00;;;;;21.28;38.17;100458.47;146604;635;46036;-81
2024/03/12 12:21:35;;;;;;;;;0.00;0.00;;;;;21.25;38.67;100455.81;146609;602;47016;-83
2024/03/12 12:24:51;;;;;;;;;1.00;1.00;;;;;20.96;40.82;100458.31;146615;639;47021;-82
2024/03/12 12:27:51;;;;;;;;;1.00;1.00;;;;;20.85;41.76;100462.69;146608;579;47016;-82
2024/03/12 12:30:51;;;;;;;;;0.00;0.00;;;;;20.96;38.70;100455.69;146616;565;46008;-81
2024/03/12 12:34:10;;;;;;;;;1.00;1.00;;;;;20.81;38.97;100455.59;146608;644;46016;-82
2024/03/12 12:37:21;;;;;;;;;1.00;0.00;;;;;19.91;40.71;100312.00;146614;683;46009;-82
2024/03/12 12:40:34;;;;;;;;;1.00;1.00;;;;;20.74;40.99;100446.78;146611;602;46016;-82
2024/03/12 12:43:47;;;;;;;;;1.00;1.00;;;;;20.94;41.15;100449.53;146614;608;47011;-84
2024/03/12 12:46:49;;;;;;;;;0.00;0.00;;;;;20.97;39.86;100447.78;146609;571;46010;-82
2024/03/12 12:49:58;;;;;;;;;0.67;0.67;;;;;21.05;42.52;100445.19;146605;563;46020;-85
2024/03/12 12:53:05;;;;;;;;;1.00;0.00;;;;;21.20;40.86;100447.00;146610;590;46016;-85
2024/03/12 12:56:08;;;;;;;;;0.00;0.00;;;;;21.27;39.38;100438.22;146615;704;47020;-84
2024/03/12 12:59:36;;;;;;;;;1.00;1.00;;;;;21.33;40.17;100434.72;146609;584;47010;-88
2024/03/12 13:02:40;;;;;;;;;2.67;1.33;;;;;19.81;40.69;100154.94;146613;593;47020;-90
2024/03/12 13:05:44;;;;;;;;;2.33;0.00;;;;;21.37;39.53;100424.25;146611;619;47010;-84
2024/03/12 13:08:52;;;;;;;;;0.00;0.00;;;;;21.42;39.25;100416.31;146615;628;47020;-88
2024/03/12 13:11:55;;;;;;;;;0.00;0.00;;;;;21.43;35.31;100428.62;146611;625;46016;-87
2024/03/12 13:14:51;;;;;;;;;1.67;0.67;;;;;21.40;38.05;100434.81;146617;631;46021;-89
2024/03/12 13:17:44;;;;;;;;;2.00;1.00;;;;;21.43;37.83;100425.97;146602;564;48911;-88
2024/03/12 13:20:41;;;;;;;;;0.00;0.00;;;;;21.45;37.59;100417.19;146602;657;47008;-87
2024/03/12 13:23:58;;;;;;;;;1.00;0.00;;;;;21.48;40.24;100423.37;146608;599;46016;-87
2024/03/12 13:26:51;;;;;;;;;0.00;0.00;;;;;21.51;38.52;100411.06;146635;633;45008;-90
2024/03/12 13:30:21;;;;;;;;;0.00;0.00;;;;;21.56;41.58;100414.59;146630;645;47010;-90
2024/03/12 13:33:20;;;;;;;;;2.00;0.00;;;;;21.57;39.42;100419.00;146635;575;47008;-87
2024/03/12 13:36:22;;;;;;;;;0.00;0.00;;;;;21.59;38.93;100406.69;146633;660;45912;-86
2024/03/12 13:39:23;;;;;;;;;0.33;0.00;;;;;21.59;39.22;100405.81;146638;593;45020;-90
2024/03/12 13:42:22;;;;;;;;;0.00;0.00;;;;;21.56;38.31;100398.78;146632;603;45912;-88
2024/03/12 13:45:24;;;;;;;;;1.67;0.33;;;;;21.44;37.59;100390.84;146635;577;45020;-87
2024/03/12 13:48:30;;;;;;;;;0.67;0.00;;;;;21.30;38.31;100395.16;146629;586;46010;-90
2024/03/12 13:51:25;;;;;;;;;0.00;0.00;;;;;21.19;38.05;100389.87;146631;695;45020;-90
2024/03/12 13:54:39;;;;;;;;;0.00;0.00;;;;;21.03;39.30;100396.87;146634;692;45016;-88
2024/03/12 13:57:38;;;;;;;;;1.00;1.00;;;;;20.87;39.56;100389.75;146636;574;45023;-82
2024/03/12 14:00:32;;;;;;;;;0.00;0.00;;;;;20.75;39.23;100395.88;146635;586;45016;-87
2024/03/12 14:03:51;;;;;;;;;1.00;1.00;;;;;20.69;40.15;100402.00;146632;570;46020;-86
2024/03/12 14:06:55;;;;;;;;;6.00;6.00;;;;;20.62;38.41;100394.03;146634;581;45010;-84
2024/03/12 14:09:54;;;;;;;;;1.00;0.00;;;;;20.51;39.43;100399.22;146638;627;45008;-83
2024/03/12 14:13:04;;;;;;;;;1.00;1.00;;;;;19.01;41.45;100174.56;146628;630;46012;-85
2024/03/12 14:16:09;;;;;;;;;0.00;0.00;;;;;19.81;39.99;100323.31;146638;581;45008;-84
2024/03/12 14:19:16;;;;;;;;;1.00;0.00;;;;;20.21;41.36;100398.16;146632;649;46008;-85
2024/03/12 14:22:14;;;;;;;;;0.00;0.00;;;;;20.18;39.19;100402.53;146631;633;44021;-83
2024/03/12 14:25:11;;;;;;;;;0.33;0.33;;;;;20.08;37.79;100399.81;146621;599;47010;-86
2024/03/12 14:28:05;;;;;;;;;1.00;1.00;;;;;20.01;36.75;100400.66;146616;566;46020;-87
2024/03/12 14:31:16;;;;;;;;;;;;;;;;;;;;;
2024/03/12 14:34:35;;;;;;;;;0.00;0.00;;;;;19.84;39.97;100395.28;146617;593;46008;-86